首页
METAR-TAF:

METAR-TAF

机场 :

呵叻, 泰国

纬度: 14-56-58N, 经度: 102-18-45E, 海拔: 233米

当前天气观测

该预报发布于41分钟前的03:00 UTC
风速4节,风向西转西北,在西转西南北转东北之间变化
温度 31°C
湿度 66%
气压 1005 hPa
能见度10公里或以上
少量云层高于3000英尺

METAR: VTUQ 220300Z 30004KT 250V020 9999 FEW030 31/24 Q1005 NOSIG

时间: 10:41 (03:41 UTC)

预报

该预报发布于4小时和41分钟前的23:00 UTC
预报有效从22日的 00点(UTC)到 22日的 24点(UTC)
风速5节,风向西转西南
能見度: 9000
散云层高于3000英尺
短暂存在
从 22日的 05点(UTC)到 22日的 12点(UTC)
少量云层高于1800英尺, 积雨云.
多云层高于3000英尺
雷暴, 小雨,

TAF: VTUQ 212300Z 2200/2224 25005KT 9000 SCT030 TEMPO 2205/2212 -TSRA FEW018CB BKN030

超过4000个机场的气象观测和天气预报(METAR&TAF报告)。

可查询的气象台以黄色和红色小点在地图上表示。

将鼠标移到小点上方,可查看气象台名称。

然后点击查看天气观测和预报。

如需切换地图:点击带黑十字的绿色按钮放大地图;点击带横线的绿色按钮缩小地图;或者点击绿色箭头查看邻近地区的地图。


METAR-TAF: